Eibergen, Netherlands
Current Conditions -  °F | °C
As of 9:55 PM on Thursday 20 Nov 2014 (Local Time) from EHDL Reporting Station
Haze Haze  
Wind Chill: 40°   Ceiling: 1400
Heat Index: 45°   Visibility: 5mi
Dew Point: 39°   Wind: 8mph
Humidity: 81%   Direction: 110°ESE
Pressure: 30.3"   Gusts: NA
Location:  52.1°N, 6.65°E
Report Text: EHDL 202055Z AUTO 11007KT 8000 BR OVC014 07/04 Q1026 GRN
Loading
Personal Weather Stations






























Interactive Weather Map New forecast layout! Learn more

10-Day Weather Forecast

Advertisements
Track Severe Weather on mobile